Whitehall, Michigan
Current Conditions -  °F | °C
As of 4:55 AM on Monday 22 Dec 2014 (Local Time) from KMKG Reporting Station
Few Clouds Few Clouds  
Wind Chill: 23°   Ceiling: Unl
Heat Index: 31°   Visibility: 7mi
Dew Point: 24°   Wind: 9mph
Humidity: 76%   Direction: 130°SE
Pressure: 30.03"   Gusts: NA
Location:  43.41°N, 86.35°W
Report Text: KMKG 220955Z AUTO 13008KT 7SM FEW095 M01/M04 A3003 RMK AO2 SLP178 T10061044
Loading
Personal Weather Stations






























Interactive Weather Map New forecast layout! Learn more

10-Day Weather Forecast

Advertisements
Track Severe Weather on mobile